Home > Products > Valid Products > TAF

000
FTUS44 KLUB 302300
TAFLBB
TAF
KLBB 302320Z 3100/3124 15008KT P6SM FEW090 SCT250
     FM311500 20016KT P6SM SCT250=



000
FTUS44 KLUB 302300
TAFCDS
TAF
KCDS 302320Z 3100/3124 15007KT P6SM FEW070 SCT250
     FM311700 19019KT P6SM SCT100 SCT250=



000
FTUS44 KLUB 301700
TAFCDS
TAF
KCDS 301723Z 3018/3118 VRB05KT P6SM FEW250
     FM302100 14007KT P6SM FEW070 SCT250
     FM310800 17008KT P6SM BKN120 BKN350
     FM311500 20016G22KT P6SM SCT100 SCT350=



000
FTUS44 KLUB 301700
TAFLBB
TAF
KLBB 301723Z 3018/3118 23007KT P6SM FEW250
     FM302100 17009KT P6SM FEW100 SCT250
     FM311500 20015G20KT P6SM SCT120 SCT350=



000
FTUS44 KLUB 301100
TAFCDS
TAF
KCDS 301134Z 3012/3112 VRB05KT P6SM FEW250
     FM302100 14007KT P6SM FEW070 SCT200=



000
FTUS44 KLUB 301100
TAFLBB
TAF
KLBB 301134Z 3012/3112 21007KT P6SM FEW250
      TEMPO 3012/3014 4SM BR
     FM302000 15009KT P6SM FEW080 FEW250=



000
FTUS44 KLUB 300500
TAFLBB
TAF
KLBB 300520Z 3006/3106 15006KT P6SM SKC
     FM301200 21007KT P6SM FEW250=



000
FTUS44 KLUB 300500
TAFCDS
TAF
KCDS 300520Z 3006/3106 16004KT P6SM SKC
     FM301200 VRB04KT P6SM FEW250=



000
FTUS44 KLUB 292300
TAFLBB
TAF
KLBB 292320Z 3000/3024 13005KT P6SM FEW060=



000
FTUS44 KLUB 292300
TAFCDS
TAF
KCDS 292320Z 3000/3024 VRB03KT P6SM FEW060=



000
FTUS44 KLUB 291700
TAFCDS
TAF
KCDS 291722Z 2918/3018 VRB06KT P6SM SCT018
     FM292200 VRB06KT P6SM FEW030 FEW350
     FM301200 29005KT P6SM SCT050 SCT150=



000
FTUS44 KLUB 291700
TAFLBB
TAF
KLBB 291722Z 2918/3018 VRB06KT P6SM FEW060 FEW250
     FM301200 20006KT P6SM FEW080 FEW300=



000
FTUS44 KLUB 291100 RRA
TAFCDS
TAF
KCDS 291142Z 2912/3012 VRB05KT P6SM FEW003 BKN020 BKN100
      TEMPO 2912/2915 3SM BR BKN010
     FM291800 VRB06KT P6SM FEW070=



000
FTUS44 KLUB 291100 RRA
TAFLBB
TAF
KLBB 291142Z 2912/3012 02006KT P6SM FEW007 SCT025 SCT250
      TEMPO 2912/2915 3SM BR SCT005 BKN008
     FM291700 VRB06KT P6SM FEW080 SCT250=



000
FTUS44 KLUB 291000 AAC
TAFLBB
TAF AMD
KLBB 291015Z 2910/3006 03008KT P6SM FEW006 FEW250
      TEMPO 2910/2914 5SM BR BKN006
     FM291500 VRB05KT P6SM SCT250 PROB30 2919/2924 -TSRA SCT070CB=



000
FTUS44 KLUB 290800 AAA
TAFCDS
TAF AMD
KCDS 290806Z 2908/3006 08006KT 6SM BR SCT005 BKN250
      TEMPO 2908/2912 1SM BR BKN003
     FM291500 VRB04KT P6SM SCT250 PROB30 2918/2923 -TSRA SCT070CB=



000
FTUS44 KLUB 290600 AAB
TAFLBB
TAF AMD
KLBB 290700Z 2907/3006 13011KT P6SM FEW060 FEW250
      TEMPO 2907/2911 6SM BR BKN006
     FM291500 VRB05KT P6SM SCT250 PROB30 2919/2924 -TSRA SCT070CB=



000
FTUS44 KLUB 290600 AAA
TAFLBB
TAF AMD
KLBB 290632Z 2907/3006 09004KT P6SM FEW250
      TEMPO 2907/2911 6SM BR SCT006
     FM291500 VRB05KT P6SM SCT250 PROB30 2919/2924 -TSRA SCT070CB=



000
FTUS44 KLUB 290500
TAFCDS
TAF
KCDS 290520Z 2906/3006 08006KT P6SM BKN250
     FM291500 VRB04KT P6SM SCT250 PROB30 2918/2923 -TSRA SCT070CB=



000
FTUS44 KLUB 290500
TAFLBB
TAF
KLBB 290520Z 2906/3006 09004KT P6SM FEW250
     FM291500 VRB05KT P6SM SCT250 PROB30 2919/2924 -TSRA SCT070CB=



000
FTUS44 KLUB 282300
TAFLBB
TAF
KLBB 282320Z 2900/2924 20015KT P6SM VCTS SCT070CB BKN120
     FM290030 19011KT P6SM SCT070 SCT300=



000
FTUS44 KLUB 282300
TAFCDS
TAF
KCDS 282320Z 2900/2924 17011KT P6SM VCTS SCT080CB
     FM290100 17011KT P6SM SCT060=



000
FTUS44 KLUB 282200 AAD
TAFCDS
TAF AMD
KCDS 282246Z 2823/2918 VRB10G20KT 6SM -TSRA BKN070CB
      TEMPO 2822/2824 VRB35G45KT 1 1/2SM +TSRA
     FM290000 17011KT P6SM VCTS SCT080CB
     FM290100 17011KT P6SM SCT080=



000
FTUS44 KLUB 282200 AAC
TAFCDS
TAF AMD
KCDS 282200Z 2822/2918 VRB10G20KT 6SM -TSRA BKN070CB
      TEMPO 2822/2824 VRB35G45KT 1/2SM +TSRA
     FM290000 17011KT P6SM VCTS SCT080CB
     FM290100 17011KT P6SM SCT080=



000
FTUS44 KLUB 282100 AAB
TAFCDS
TAF AMD
KCDS 282124Z 2821/2918 17011KT P6SM VCTS SCT080CB BKN200
     FM282240 VRB30KT 6SM TSRA BKN070CB
     FM290000 17011KT P6SM VCTS SCT080CB
     FM290100 17011KT P6SM SCT080=



000
FTUS44 KLUB 282100 AAD
TAFLBB
TAF AMD
KLBB 282124Z 2821/2918 20015KT P6SM VCTS FEW070CB BKN120 BKN300
      TEMPO 2822/2901 P6SM -TSRA BKN050CB BKN150 BKN300
     FM290200 18011KT P6SM SCT070 SCT300=



000
FTUS44 KLUB 282100 AAC
TAFLBB
TAF AMD
KLBB 282116Z 2821/2918 18011KT P6SM VCTS FEW070CB BKN200
      TEMPO 2821/2824 VRB15G25KT -TSRA BKN050CB BKN200
     FM290000 16008KT P6SM FEW100 SCT200=



000
FTUS44 KLUB 282000 AAB
TAFLBB
TAF AMD
KLBB 282018Z 2820/2918 20011KT P6SM VCTS FEW070CB BKN200
      TEMPO 2820/2823 P6SM -TSRA SCT050CB BKN200=



000
FTUS44 KLUB 282000 AAA
TAFCDS
TAF AMD
KCDS 282004Z 2820/2918 17011KT P6SM VCTS SCT080CB BKN200=



000
FTUS44 KLUB 281900 AAA
TAFLBB
TAF AMD
KLBB 281933Z 2820/2918 20011KT P6SM VCTS FEW070CB BKN200=



000
FTUS44 KLUB 281700
TAFLBB
TAF
KLBB 281720Z 2818/2918 20011KT P6SM FEW100 BKN200=



000
FTUS44 KLUB 281700
TAFCDS
TAF
KCDS 281720Z 2818/2918 13008KT P6SM VCSH SCT060 BKN200
     FM281900 17011KT P6SM SCT080 BKN200=



000
FTUS44 KLUB 281600 AAA
TAFLBB
TAF AMD
KLBB 281608Z 2816/2912 22011KT P6SM FEW100 BKN200=



000
FTUS44 KLUB 281500 AAB
TAFCDS
TAF AMD
KCDS 281515Z 2815/2912 17010KT P6SM VCTS SCT030CB BKN200
     FM281600 15008KT P6SM SCT060 BKN200=



000
FTUS44 KLUB 281400 AAA
TAFCDS
TAF AMD
KCDS 281453Z 2815/2912 17008KT P6SM SCT090 BKN200
      TEMPO 2815/2818 3SM TSRA SCT060CB BKN070=



000
FTUS44 KLUB 281100
TAFCDS
TAF
KCDS 281128Z 2812/2912 17008KT P6SM SCT090 BKN200
     FM281800 19010KT P6SM SCT070 BKN200 PROB30 2821/2903 TSRA
      BKN070CB=



000
FTUS44 KLUB 281100
TAFLBB
TAF
KLBB 281128Z 2812/2912 16009KT P6SM FEW100 BKN200
     FM281800 20011KT P6SM SCT060 BKN200 PROB30 2821/2903 TSRA
      BKN060CB=



000
FTUS44 KLUB 280500
TAFCDS
TAF
KCDS 280520Z 2806/2906 VRB06KT P6SM BKN080
     FM281400 18008KT P6SM BKN100 PROB30 2820/2824 TSRA BKN060CB=



000
FTUS44 KLUB 280500
TAFLBB
TAF
KLBB 280520Z 2806/2906 13008KT P6SM BKN100
      TEMPO 2806/2810 -TSRA SCT080CB
     FM281200 20009KT P6SM BKN100 PROB30 2820/2824 TSRA BKN060CB=



    US Dept of Commerce
    National Oceanic and Atmospheric Administration
    National Weather Service
    1325 East West Highway
    Silver Spring, MD 20910
    Page Author: NWS Internet Services Team
Disclaimer
Information Quality
Credits
Glossary
Privacy Policy
Freedom of Information Act (FOIA)
About Us
Career Opportunities